Time;durP1;ratioP1;P1;durP2;ratioP2;P2;SDS_P1;SDS_P2;PMS_P1;PMS_P2;Temp;Humidity;BMP_temperature;BMP_pressure;BME280_temperature;BME280_humidity;BME280_pressure;Samples;Min_cycle;Max_cycle;Signal;HPM_P1;HPM_P2
2022/08/06 00:00:55;;;;;;;2.00;0.22;;;11.80;99.90;;;;;;5093849;28;20073;-73
2022/08/06 00:03:21;;;;;;;0.75;0.00;;;11.80;99.90;;;;;;5093634;28;20031;-73
2022/08/06 00:05:47;;;;;;;2.92;0.00;;;11.70;99.90;;;;;;5093870;28;20028;-73
2022/08/06 00:08:12;;;;;;;1.55;0.20;;;11.80;99.90;;;;;;5094084;28;20031;-73
2022/08/06 00:10:38;;;;;;;1.88;0.38;;;11.80;99.90;;;;;;5093336;28;20032;-73
2022/08/06 00:13:04;;;;;;;1.52;0.00;;;11.70;99.90;;;;;;5093327;28;20024;-73
2022/08/06 00:15:30;;;;;;;3.88;0.10;;;11.70;99.90;;;;;;5093529;28;20024;-73
2022/08/06 00:17:55;;;;;;;1.30;0.15;;;11.70;99.90;;;;;;5093422;28;20019;-73
2022/08/06 00:20:21;;;;;;;2.50;0.10;;;11.70;99.90;;;;;;5093906;28;20469;-73
2022/08/06 00:22:46;;;;;;;1.15;0.17;;;11.70;99.90;;;;;;5093355;28;20492;-73
2022/08/06 00:25:14;;;;;;;2.95;0.65;;;11.70;99.90;;;;;;5093606;28;20073;-73
2022/08/06 00:27:40;;;;;;;1.48;0.00;;;11.70;99.90;;;;;;5093639;28;20024;-73
2022/08/06 00:30:07;;;;;;;1.65;0.00;;;11.70;99.90;;;;;;5091935;28;20043;-73
2022/08/06 00:32:32;;;;;;;2.58;0.25;;;11.60;99.90;;;;;;5093746;28;20035;-73
2022/08/06 00:34:58;;;;;;;2.70;0.10;;;11.60;99.90;;;;;;5093322;28;20012;-73
2022/08/06 00:37:24;;;;;;;6.32;0.35;;;11.60;99.90;;;;;;5092043;28;20032;-73
2022/08/06 00:39:49;;;;;;;0.63;0.00;;;11.60;99.90;;;;;;5091898;28;20024;-73
2022/08/06 00:42:15;;;;;;;0.40;0.00;;;11.60;99.90;;;;;;5093219;28;20035;-73
2022/08/06 00:44:41;;;;;;;4.05;0.13;;;11.60;99.90;;;;;;5093272;28;20516;-73
2022/08/06 00:47:06;;;;;;;2.10;0.35;;;11.60;99.90;;;;;;5095658;28;20032;-73
2022/08/06 00:49:32;;;;;;;0.68;0.00;;;11.50;99.90;;;;;;5095921;28;20388;-73
2022/08/06 00:51:57;;;;;;;2.20;0.05;;;11.50;99.90;;;;;;5097107;28;20042;-73
2022/08/06 00:54:23;;;;;;;2.97;0.00;;;11.50;99.90;;;;;;5097656;28;20028;-72
2022/08/06 00:56:49;;;;;;;1.75;0.10;;;11.50;99.90;;;;;;5095788;28;20012;-72
2022/08/06 00:59:15;;;;;;;0.98;0.10;;;11.50;99.90;;;;;;5097247;28;20016;-72
2022/08/06 01:01:40;;;;;;;1.13;0.25;;;11.50;99.90;;;;;;5097210;28;20077;-72
2022/08/06 01:04:06;;;;;;;1.52;0.00;;;11.40;99.90;;;;;;5096908;28;20024;-72
2022/08/06 01:06:32;;;;;;;2.67;0.10;;;11.40;99.90;;;;;;5096932;28;20031;-72
2022/08/06 01:08:57;;;;;;;3.35;0.57;;;11.40;99.90;;;;;;5095526;28;20059;-72
2022/08/06 01:11:23;;;;;;;0.80;0.10;;;11.40;99.90;;;;;;5097021;28;20413;-72
2022/08/06 01:13:49;;;;;;;1.50;0.15;;;11.40;99.90;;;;;;5096744;28;20081;-72
2022/08/06 01:16:21;;;;;;;3.97;0.00;;;11.30;99.90;;;;;;5096953;28;20027;-72
2022/08/06 01:18:57;;;;;;;2.00;0.03;;;11.30;99.90;;;;;;5095433;28;20126;-73
2022/08/06 01:21:49;;;;;;;1.75;0.00;;;11.30;99.90;;;;;;5097162;28;20012;-72
2022/08/06 01:24:53;;;;;;;1.40;0.00;;;11.30;99.90;;;;;;5096237;28;20032;-72
2022/08/06 01:27:37;;;;;;;3.92;0.20;;;11.20;99.90;;;;;;5096189;28;20472;-72
2022/08/06 01:30:07;;;;;;;2.50;0.00;;;11.20;99.90;;;;;;5096680;28;20085;-72
2022/08/06 01:32:38;;;;;;;2.95;0.35;;;11.20;99.90;;;;;;5096505;28;20016;-72
2022/08/06 01:35:10;;;;;;;1.33;0.00;;;11.20;99.90;;;;;;5095175;28;20027;-74
2022/08/06 01:37:45;;;;;;;4.55;0.00;;;11.20;99.90;;;;;;5096382;28;20026;-72
2022/08/06 01:40:17;;;;;;;1.77;0.22;;;11.10;99.90;;;;;;5096376;28;20134;-72
2022/08/06 01:42:44;;;;;;;1.92;0.43;;;11.10;99.90;;;;;;5096470;28;20081;-72
2022/08/06 01:45:13;;;;;;;1.23;0.17;;;11.10;99.90;;;;;;5096173;28;20077;-72
2022/08/06 01:47:41;;;;;;;;;;;11.10;99.90;;;;;;5095270;28;20024;-72
2022/08/06 01:50:07;;;;;;;0.60;0.00;;;11.10;99.90;;;;;;5096152;28;19907;-73
2022/08/06 01:52:37;;;;;;;0.28;0.00;;;11.00;99.90;;;;;;5096098;28;20023;-73
2022/08/06 01:55:06;;;;;;;0.10;0.00;;;11.10;99.90;;;;;;5097086;28;20020;-73
2022/08/06 01:57:34;;;;;;;0.47;0.00;;;11.00;99.90;;;;;;5096301;28;20027;-72
2022/08/06 02:00:04;;;;;;;3.20;0.63;;;11.00;99.90;;;;;;5095497;28;20024;-72
2022/08/06 02:02:30;;;;;;;4.35;0.32;;;11.00;99.90;;;;;;5095731;28;20024;-72
2022/08/06 02:05:00;;;;;;;1.83;0.10;;;11.00;99.90;;;;;;5095994;28;20032;-72
2022/08/06 02:07:35;;;;;;;0.55;0.00;;;11.00;99.90;;;;;;5095756;28;20024;-72
2022/08/06 02:10:04;;;;;;;4.18;0.63;;;10.90;99.90;;;;;;5094436;28;20059;-72
2022/08/06 02:12:31;;;;;;;2.72;0.15;;;10.90;99.90;;;;;;5095647;28;20012;-73
2022/08/06 02:15:00;;;;;;;4.97;0.43;;;11.00;99.90;;;;;;5095533;28;20115;-72
2022/08/06 02:17:30;;;;;;;;;;;10.90;99.90;;;;;;5095943;28;20020;-72
2022/08/06 02:20:00;;;;;;;0.43;0.00;;;10.90;99.90;;;;;;5094131;28;19911;-72
2022/08/06 02:22:28;;;;;;;2.80;0.32;;;10.90;99.90;;;;;;5095621;28;20023;-72
2022/08/06 02:24:59;;;;;;;2.53;0.03;;;10.90;99.90;;;;;;5095370;28;20016;-72
2022/08/06 02:27:26;;;;;;;2.42;0.10;;;10.90;99.90;;;;;;5095396;28;20020;-73
2022/08/06 02:29:55;;;;;;;3.05;0.38;;;10.90;99.90;;;;;;5094045;28;20470;-72
2022/08/06 02:32:21;;;;;;;;;;;10.90;99.90;;;;;;5095883;28;20497;-72
2022/08/06 02:34:47;;;;;;;0.22;0.15;;;10.90;99.90;;;;;;5095122;28;19904;-72
2022/08/06 02:37:29;;;;;;;0.22;0.00;;;10.90;99.90;;;;;;5095283;28;20080;-72
2022/08/06 02:40:02;;;;;;;2.30;0.10;;;10.80;99.90;;;;;;5095182;28;20021;-72
2022/08/06 02:42:33;;;;;;;2.92;0.00;;;10.80;99.90;;;;;;5095184;28;20031;-72
2022/08/06 02:45:39;;;;;;;1.80;0.20;;;10.80;99.90;;;;;;5095080;28;20024;-72
2022/08/06 02:48:14;;;;;;;1.20;0.00;;;10.80;99.90;;;;;;5094657;28;20523;-73
2022/08/06 02:50:47;;;;;;;1.98;0.00;;;10.80;99.90;;;;;;5095104;28;20078;-72
2022/08/06 02:53:26;;;;;;;1.30;0.35;;;10.70;99.90;;;;;;5093747;28;20104;-72
2022/08/06 02:55:59;;;;;;;3.63;0.43;;;10.70;99.90;;;;;;5095134;28;20020;-72
2022/08/06 02:58:35;;;;;;;0.57;0.00;;;10.70;99.90;;;;;;5094790;28;20496;-72
2022/08/06 03:01:07;;;;;;;1.33;0.00;;;10.70;99.90;;;;;;5094973;28;20023;-72
2022/08/06 03:03:33;;;;;;;3.03;0.30;;;10.70;99.90;;;;;;5095212;28;20028;-72
2022/08/06 03:06:03;;;;;;;0.68;0.00;;;10.70;99.90;;;;;;5094617;28;20024;-72
2022/08/06 03:08:30;;;;;;;1.55;0.30;;;10.60;99.90;;;;;;5093305;28;20024;-73
2022/08/06 03:10:58;;;;;;;1.63;0.60;;;10.60;99.90;;;;;;5093731;28;20028;-72
2022/08/06 03:13:25;;;;;;;2.47;0.30;;;10.60;99.90;;;;;;5094801;28;20073;-72
2022/08/06 03:15:52;;;;;;;2.45;0.00;;;10.60;99.90;;;;;;5094972;28;20050;-72
2022/08/06 03:18:20;;;;;;;0.65;0.00;;;10.60;99.90;;;;;;5094475;28;20020;-72
2022/08/06 03:20:47;;;;;;;2.45;0.00;;;10.50;99.90;;;;;;5094567;28;20091;-72
2022/08/06 03:23:14;;;;;;;0.22;0.00;;;10.60;99.90;;;;;;5093017;28;20032;-72
2022/08/06 03:25:41;;;;;;;5.93;0.55;;;10.60;99.90;;;;;;5094779;28;20073;-72
2022/08/06 03:28:08;;;;;;;0.30;0.00;;;10.60;99.90;;;;;;5094140;28;20165;-72
2022/08/06 03:30:35;;;;;;;0.77;0.00;;;10.50;99.90;;;;;;5093982;28;20028;-72
2022/08/06 03:33:08;;;;;;;0.85;0.20;;;10.50;99.90;;;;;;5094101;28;20028;-72
2022/08/06 03:35:36;;;;;;;3.65;0.10;;;10.50;99.90;;;;;;5094057;28;20016;-72
2022/08/06 03:38:02;;;;;;;0.65;0.05;;;10.50;99.90;;;;;;5094066;28;20024;-72
2022/08/06 03:40:30;;;;;;;1.55;0.00;;;10.50;99.90;;;;;;5093918;28;20031;-72
2022/08/06 03:42:55;;;;;;;2.77;0.00;;;10.50;99.90;;;;;;5093918;28;20035;-72
2022/08/06 03:45:23;;;;;;;0.40;0.00;;;10.50;99.90;;;;;;5093975;28;20258;-72
2022/08/06 03:47:53;;;;;;;0.55;0.05;;;10.40;99.90;;;;;;5093972;28;20047;-72
2022/08/06 03:50:24;;;;;;;1.42;0.08;;;10.50;99.90;;;;;;5093819;28;20052;-72
2022/08/06 03:53:04;;;;;;;1.88;0.40;;;10.50;99.90;;;;;;5093909;28;20044;-72
2022/08/06 03:55:34;;;;;;;0.65;0.00;;;10.50;99.90;;;;;;5092539;28;20024;-72
2022/08/06 03:58:09;;;;;;;1.20;0.25;;;10.50;99.90;;;;;;5093989;28;20024;-72
2022/08/06 04:00:40;;;;;;;1.38;0.32;;;10.50;99.90;;;;;;5093667;28;20550;-72
2022/08/06 04:03:08;;;;;;;3.75;0.10;;;10.40;99.90;;;;;;5093643;28;20058;-72
2022/08/06 04:05:36;;;;;;;0.17;0.00;;;10.40;99.90;;;;;;5093635;28;20023;-72
2022/08/06 04:08:07;;;;;;;0.10;0.05;;;10.40;99.90;;;;;;5092394;28;20023;-73
2022/08/06 04:10:37;;;;;;;0.10;0.00;;;10.40;99.90;;;;;;5093664;28;20020;-72
2022/08/06 04:13:08;;;;;;;0.38;0.00;;;10.40;99.90;;;;;;5092097;28;20024;-72
2022/08/06 04:15:35;;;;;;;2.50;0.15;;;10.40;99.90;;;;;;5092795;28;20362;-72
2022/08/06 04:18:02;;;;;;;3.95;0.57;;;10.30;99.90;;;;;;5093456;28;20496;-72
2022/08/06 04:20:31;;;;;;;0.43;0.00;;;10.30;99.90;;;;;;5093428;28;20024;-72
2022/08/06 04:22:56;;;;;;;2.15;0.10;;;10.30;99.90;;;;;;5093139;28;20020;-72
2022/08/06 04:25:24;;;;;;;1.23;0.00;;;10.30;99.90;;;;;;5092167;28;20030;-72
2022/08/06 04:27:51;;;;;;;0.73;0.00;;;10.30;99.90;;;;;;5092072;28;20031;-73
2022/08/06 04:30:17;;;;;;;1.85;0.00;;;10.30;99.90;;;;;;5093311;28;20081;-72
2022/08/06 04:32:44;;;;;;;0.47;0.00;;;10.40;99.90;;;;;;5093358;28;20024;-72
2022/08/06 04:35:11;;;;;;;1.45;0.00;;;10.40;99.90;;;;;;5093267;28;20100;-72
2022/08/06 04:37:38;;;;;;;0.10;0.00;;;10.40;99.90;;;;;;5092109;28;20016;-72
2022/08/06 04:40:06;;;;;;;1.35;0.45;;;10.40;99.90;;;;;;5093236;28;20027;-72
2022/08/06 04:42:31;;;;;;;3.03;0.22;;;10.40;99.90;;;;;;5093467;28;20369;-72
2022/08/06 04:44:58;;;;;;;0.30;0.00;;;10.50;99.90;;;;;;5093548;28;20085;-72
2022/08/06 04:47:24;;;;;;;0.55;0.00;;;10.50;99.90;;;;;;5093185;28;20028;-72
2022/08/06 04:49:50;;;;;;;0.73;0.00;;;10.60;99.90;;;;;;5093308;28;20462;-72
2022/08/06 04:52:27;;;;;;;0.77;0.00;;;10.70;99.90;;;;;;5093200;28;20049;-73
2022/08/06 04:54:53;;;;;;;1.45;0.15;;;10.80;99.90;;;;;;5093360;28;20028;-73
2022/08/06 04:57:18;;;;;;;0.43;0.00;;;10.80;99.90;;;;;;5093125;28;20020;-72
2022/08/06 04:59:44;;;;;;;1.65;0.47;;;10.80;99.90;;;;;;5091803;28;20020;-72
2022/08/06 05:02:10;;;;;;;0.57;0.00;;;10.90;99.90;;;;;;5091794;28;20016;-73
2022/08/06 05:04:37;;;;;;;3.10;0.50;;;11.00;99.90;;;;;;5093053;28;20020;-72
2022/08/06 05:07:14;;;;;;;2.08;0.17;;;11.10;99.90;;;;;;5093293;28;20115;-72
2022/08/06 05:09:41;;;;;;;1.60;0.03;;;11.10;99.90;;;;;;5092980;28;20532;-72
2022/08/06 05:12:24;;;;;;;1.23;0.20;;;11.30;99.90;;;;;;5093113;28;20020;-72
2022/08/06 05:15:02;;;;;;;2.80;0.10;;;11.40;99.90;;;;;;5092855;28;20032;-72
2022/08/06 05:17:36;;;;;;;0.93;0.00;;;11.60;99.90;;;;;;5093280;28;20483;-72
2022/08/06 05:20:10;;;;;;;0.43;0.00;;;11.60;99.90;;;;;;5092975;28;20031;-72
2022/08/06 05:22:37;;;;;;;2.95;0.22;;;11.70;99.90;;;;;;5093056;28;20203;-72
2022/08/06 05:25:05;;;;;;;3.90;0.00;;;11.90;99.90;;;;;;5092857;28;20107;-72
2022/08/06 05:27:31;;;;;;;1.75;0.10;;;12.00;99.90;;;;;;5092823;28;20477;-72
2022/08/06 05:29:56;;;;;;;2.97;0.17;;;12.10;99.90;;;;;;5092688;28;20023;-72
2022/08/06 05:32:22;;;;;;;1.02;0.00;;;12.30;99.90;;;;;;5091419;28;20024;-73
2022/08/06 05:34:47;;;;;;;1.70;0.00;;;12.40;99.90;;;;;;5095822;28;20099;-72
2022/08/06 05:37:13;;;;;;;0.10;0.10;;;12.50;99.90;;;;;;5096425;28;20020;-72
2022/08/06 05:39:38;;;;;;;0.63;0.00;;;12.60;99.90;;;;;;5095154;28;20469;-72
2022/08/06 05:42:04;;;;;;;3.17;0.08;;;12.80;99.90;;;;;;5096182;28;20028;-72
2022/08/06 05:44:30;;;;;;;2.15;0.00;;;12.90;99.90;;;;;;5097307;28;20031;-72
2022/08/06 05:47:11;;;;;;;2.10;0.22;;;13.00;99.90;;;;;;5096228;28;20024;-72
2022/08/06 05:49:46;;;;;;;1.15;0.10;;;13.20;99.90;;;;;;5096086;28;20059;-72
2022/08/06 05:52:32;;;;;;;3.80;0.47;;;13.30;99.90;;;;;;5094773;28;20451;-73
2022/08/06 05:55:27;;;;;;;1.80;0.00;;;13.40;99.90;;;;;;5095638;28;20370;-73
2022/08/06 05:58:02;;;;;;;3.40;0.30;;;13.60;99.90;;;;;;5095951;28;20497;-72
2022/08/06 06:00:32;;;;;;;4.75;0.35;;;13.80;99.90;;;;;;5094612;28;20028;-72
2022/08/06 06:02:59;;;;;;;1.65;0.00;;;13.90;99.90;;;;;;5095785;28;20024;-73
2022/08/06 06:05:26;;;;;;;0.22;0.13;;;14.10;99.90;;;;;;5095755;28;20034;-73
2022/08/06 06:07:55;;;;;;;0.75;0.47;;;14.20;99.90;;;;;;5095737;28;20120;-72
2022/08/06 06:10:22;;;;;;;;;;;14.40;99.90;;;;;;5094746;28;20066;-72
2022/08/06 06:12:49;;;;;;;1.52;0.00;;;14.60;99.90;;;;;;5095638;28;19904;-73
2022/08/06 06:15:16;;;;;;;0.47;0.00;;;14.80;99.90;;;;;;5095487;28;20043;-73
2022/08/06 06:17:50;;;;;;;0.13;0.00;;;14.90;99.90;;;;;;5095748;28;20481;-73
2022/08/06 06:20:23;;;;;;;1.95;0.20;;;15.10;99.90;;;;;;5094268;28;20032;-73
2022/08/06 06:22:58;;;;;;;2.38;0.40;;;15.30;99.90;;;;;;5095816;28;20020;-73
2022/08/06 06:25:42;;;;;;;1.45;0.10;;;15.50;99.90;;;;;;5095449;28;20106;-73
2022/08/06 06:28:30;;;;;;;4.88;0.45;;;15.60;99.90;;;;;;5095466;28;20027;-73
2022/08/06 06:31:35;;;;;;;3.92;0.00;;;15.80;99.90;;;;;;5095176;28;20485;-73
2022/08/06 06:34:26;;;;;;;1.45;0.00;;;15.90;99.90;;;;;;5095835;28;20024;-73
2022/08/06 06:37:09;;;;;;;1.08;0.00;;;16.10;99.90;;;;;;5095876;28;20051;-74
2022/08/06 06:40:02;;;;;;;0.90;0.00;;;16.30;99.90;;;;;;5093980;28;20469;-74
2022/08/06 06:43:11;;;;;;;0.52;0.00;;;16.50;99.90;;;;;;5093834;28;20028;-74
2022/08/06 06:45:49;;;;;;;1.67;0.00;;;16.60;99.90;;;;;;5095306;28;20020;-75
2022/08/06 06:48:28;;;;;;;1.15;0.00;;;16.80;99.90;;;;;;5095693;28;20047;-76
2022/08/06 06:51:02;;;;;;;0.73;0.00;;;16.90;99.90;;;;;;5094837;28;20024;-76
2022/08/06 06:53:32;;;;;;;1.08;0.00;;;16.90;99.90;;;;;;5094968;28;20058;-76
2022/08/06 06:55:59;;;;;;;0.52;0.00;;;17.00;99.90;;;;;;5094901;28;20016;-74
2022/08/06 06:58:32;;;;;;;1.92;0.00;;;17.10;99.90;;;;;;5094851;28;20059;-74
2022/08/06 07:00:58;;;;;;;4.05;0.00;;;17.20;99.90;;;;;;5094577;28;20020;-74
2022/08/06 07:03:28;;;;;;;2.47;0.00;;;17.30;99.90;;;;;;5094795;28;20016;-74
2022/08/06 07:05:54;;;;;;;2.20;0.00;;;17.30;99.90;;;;;;5094671;28;20028;-74
2022/08/06 07:08:22;;;;;;;0.90;0.00;;;17.40;99.90;;;;;;5094511;28;20047;-74
2022/08/06 07:10:50;;;;;;;0.20;0.00;;;17.50;99.90;;;;;;5104494;22;20041;-85
2022/08/06 07:13:17;;;;;;;0.40;0.00;;;17.70;99.90;;;;;;5084890;22;20290;-77
2022/08/06 07:15:43;;;;;;;0.13;0.00;;;17.80;99.90;;;;;;5094871;28;20040;-77
2022/08/06 07:18:11;;;;;;;3.28;0.13;;;17.90;99.90;;;;;;5093299;28;20121;-75
2022/08/06 07:20:38;;;;;;;0.10;0.00;;;18.00;99.90;;;;;;5094432;28;20023;-75
2022/08/06 07:23:08;;;;;;;0.90;0.00;;;17.90;99.90;;;;;;5094316;28;20036;-76
2022/08/06 07:25:41;;;;;;;0.00;0.00;;;18.00;99.90;;;;;;5093151;28;20400;-75
2022/08/06 07:28:09;;;;;;;0.45;0.00;;;18.10;99.90;;;;;;5093138;28;20024;-75
2022/08/06 07:30:35;;;;;;;0.03;0.00;;;18.20;99.90;;;;;;5094646;28;20036;-75
2022/08/06 07:33:03;;;;;;;1.25;0.00;;;18.30;99.90;;;;;;5094864;28;20031;-75
2022/08/06 07:35:29;;;;;;;0.50;0.00;;;18.40;99.90;;;;;;5094232;28;20397;-75
2022/08/06 07:38:03;;;;;;;0.10;0.00;;;18.50;99.90;;;;;;5094138;28;20016;-75
2022/08/06 07:40:32;;;;;;;1.25;0.00;;;18.60;99.90;;;;;;5093989;28;20059;-75
2022/08/06 07:43:08;;;;;;;0.10;0.00;;;18.70;99.90;;;;;;5094483;28;20158;-77
2022/08/06 07:45:34;;;;;;;1.17;0.10;;;18.70;99.90;;;;;;5094721;28;20380;-77
2022/08/06 07:48:07;;;;;;;1.55;0.00;;;18.90;99.90;;;;;;5094119;28;20385;-77
2022/08/06 07:50:32;;;;;;;2.28;0.00;;;19.00;99.90;;;;;;5094259;28;20035;-77
2022/08/06 07:52:59;;;;;;;0.70;0.00;;;19.10;99.90;;;;;;5092694;28;20489;-77
2022/08/06 07:55:26;;;;;;;2.08;0.20;;;19.20;99.90;;;;;;5092521;28;20020;-77
2022/08/06 07:57:57;;;;;;;2.38;0.00;;;19.20;99.90;;;;;;5093721;28;20027;-77
2022/08/06 08:00:23;;;;;;;0.40;0.00;;;19.30;99.90;;;;;;5093777;28;20557;-76
2022/08/06 08:08:24;;;;;;;0.77;0.00;;;19.40;99.90;;;;;;5094524;28;20118;-75
2022/08/06 08:10:50;;;;;;;3.83;0.10;;;19.60;99.90;;;;;;5093416;28;20025;-75
2022/08/06 08:13:18;;;;;;;1.27;0.00;;;19.70;99.90;;;;;;5092301;28;20468;-75
2022/08/06 08:15:46;;;;;;;0.52;0.00;;;19.80;99.90;;;;;;5093956;28;20473;-75
2022/08/06 08:18:11;;;;;;;0.53;0.00;;;19.90;99.90;;;;;;5092515;28;20054;-75
2022/08/06 08:20:39;;;;;;;0.00;0.00;;;20.00;99.50;;;;;;5093530;28;20431;-75
2022/08/06 08:23:06;;;;;;;0.00;0.00;;;20.20;99.00;;;;;;5093495;28;20400;-76
2022/08/06 08:25:33;;;;;;;1.13;0.00;;;20.30;99.50;;;;;;5093899;28;20530;-75
2022/08/06 08:27:59;;;;;;;0.10;0.00;;;20.30;96.40;;;;;;5093757;28;20019;-75
2022/08/06 08:30:24;;;;;;;0.20;0.20;;;20.30;96.10;;;;;;5093245;28;20036;-75
2022/08/06 08:32:50;;;;;;;0.93;0.00;;;20.20;96.50;;;;;;5092175;28;20023;-75
2022/08/06 08:35:15;;;;;;;0.75;0.00;;;20.30;96.40;;;;;;5093364;28;20027;-75
2022/08/06 08:37:41;;;;;;;1.38;0.00;;;20.20;95.20;;;;;;5093272;28;20051;-76
2022/08/06 08:40:08;;;;;;;0.30;0.00;;;20.10;95.90;;;;;;5093276;28;20027;-75
2022/08/06 08:42:36;;;;;;;0.90;0.00;;;20.00;96.10;;;;;;5093153;28;20484;-75
2022/08/06 08:45:02;;;;;;;0.35;0.00;;;20.00;96.00;;;;;;5093488;28;20020;-75
2022/08/06 08:47:30;;;;;;;1.02;0.00;;;20.10;96.10;;;;;;5093250;28;20469;-75
2022/08/06 08:50:00;;;;;;;0.17;0.00;;;20.20;96.00;;;;;;5093478;28;20024;-75
2022/08/06 08:52:32;;;;;;;1.27;0.00;;;20.20;95.30;;;;;;5093211;28;20020;-75
2022/08/06 08:55:01;;;;;;;0.90;0.22;;;20.30;96.30;;;;;;5091933;28;20024;-75
2022/08/06 08:57:28;;;;;;;0.80;0.00;;;20.50;95.20;;;;;;5093255;28;20035;-75
2022/08/06 08:59:54;;;;;;;1.98;0.00;;;20.70;95.40;;;;;;5093182;28;20480;-75
2022/08/06 09:02:20;;;;;;;0.50;0.00;;;20.80;92.00;;;;;;5093562;28;20069;-75
2022/08/06 09:04:46;;;;;;;0.35;0.00;;;20.90;93.50;;;;;;5093157;28;20030;-75
2022/08/06 09:07:12;;;;;;;0.00;0.00;;;21.10;93.40;;;;;;5091975;28;20028;-75
2022/08/06 09:09:38;;;;;;;0.80;0.00;;;21.10;89.60;;;;;;5095921;28;20032;-75
2022/08/06 09:12:05;;;;;;;0.03;0.00;;;21.00;91.30;;;;;;5095591;28;20066;-75
2022/08/06 09:14:31;;;;;;;1.40;0.00;;;21.10;90.00;;;;;;5096837;28;20540;-75
2022/08/06 09:17:01;;;;;;;0.30;0.00;;;21.30;90.60;;;;;;5097045;28;20021;-75
2022/08/06 09:19:29;;;;;;;0.25;0.00;;;21.60;89.80;;;;;;5096855;28;20075;-75
2022/08/06 09:21:56;;;;;;;2.08;0.00;;;21.80;89.90;;;;;;5096615;28;20434;-75
2022/08/06 09:24:23;;;;;;;0.15;0.00;;;21.80;85.70;;;;;;5095403;28;20498;-75
2022/08/06 09:27:09;;;;;;;0.25;0.00;;;22.00;87.20;;;;;;5096843;28;20016;-77
2022/08/06 09:29:35;;;;;;;1.65;0.00;;;22.00;82.40;;;;;;5095399;28;20016;-77
2022/08/06 09:32:06;;;;;;;0.00;0.00;;;22.30;86.50;;;;;;5096540;28;20095;-78
2022/08/06 09:34:39;;;;;;;0.00;0.00;;;22.40;82.40;;;;;;5097113;28;20020;-78
2022/08/06 09:37:05;;;;;;;0.22;0.00;;;22.40;82.20;;;;;;5095654;28;20027;-78
2022/08/06 09:39:34;;;;;;;0.00;0.00;;;22.30;80.90;;;;;;5096755;28;20040;-77
2022/08/06 09:42:01;;;;;;;0.40;0.15;;;22.20;81.60;;;;;;5095045;28;20016;-77
2022/08/06 09:44:26;;;;;;;0.00;0.00;;;21.90;84.60;;;;;;5096333;28;20020;-77
2022/08/06 09:46:53;;;;;;;1.60;0.00;;;21.60;87.00;;;;;;5096419;28;20078;-77
2022/08/06 09:49:19;;;;;;;1.35;0.00;;;21.50;83.40;;;;;;5095057;28;20385;-77
2022/08/06 09:51:45;;;;;;;0.22;0.00;;;21.40;83.60;;;;;;5096095;28;20024;-77
2022/08/06 09:54:20;;;;;;;1.38;0.00;;;21.30;83.50;;;;;;5096110;28;20024;-75
2022/08/06 09:56:55;;;;;;;0.75;0.00;;;21.50;85.70;;;;;;5096084;28;20039;-76
2022/08/06 09:59:20;;;;;;;1.27;0.05;;;21.90;87.30;;;;;;5096014;28;20016;-77
2022/08/06 10:01:47;;;;;;;1.60;0.00;;;22.20;85.20;;;;;;5096434;28;20031;-77
2022/08/06 10:04:22;;;;;;;0.15;0.00;;;22.10;83.90;;;;;;5096178;28;20526;-77
2022/08/06 10:06:57;;;;;;;1.55;0.00;;;21.90;82.50;;;;;;5094570;28;20051;-77
2022/08/06 10:09:23;;;;;;;0.10;0.00;;;21.70;83.50;;;;;;5094534;28;20016;-77
2022/08/06 10:11:49;;;;;;;0.63;0.05;;;21.70;83.50;;;;;;5095758;28;20020;-77
2022/08/06 10:14:32;;;;;;;0.00;0.00;;;22.00;84.20;;;;;;5095553;28;20067;-77
2022/08/06 10:17:03;;;;;;;0.90;0.00;;;22.20;78.10;;;;;;5094401;28;20107;-77
2022/08/06 10:19:29;;;;;;;0.00;0.00;;;22.50;78.00;;;;;;5095142;28;20028;-77
2022/08/06 10:21:54;;;;;;;1.73;0.00;;;22.70;76.70;;;;;;5094625;28;20029;-77
2022/08/06 10:24:21;;;;;;;0.10;0.00;;;22.80;74.80;;;;;;5095824;28;20020;-77
2022/08/06 10:26:48;;;;;;;0.45;0.00;;;22.90;77.80;;;;;;5095426;28;20522;-77
2022/08/06 10:29:15;;;;;;;1.48;0.00;;;23.00;74.00;;;;;;5095557;28;20035;-77
2022/08/06 10:31:41;;;;;;;1.10;0.00;;;22.90;73.90;;;;;;5095246;28;20096;-77
2022/08/06 10:34:13;;;;;;;0.63;0.00;;;22.70;74.40;;;;;;5095448;28;20024;-77
2022/08/06 10:36:49;;;;;;;0.20;0.00;;;22.70;74.70;;;;;;5095580;28;20024;-77
2022/08/06 10:39:15;;;;;;;2.38;0.00;;;22.50;76.00;;;;;;5095810;28;20020;-77
2022/08/06 10:41:43;;;;;;;0.73;0.00;;;22.20;74.90;;;;;;5095105;28;20028;-77
2022/08/06 10:44:10;;;;;;;0.80;0.00;;;21.90;76.70;;;;;;5095167;28;20024;-77
2022/08/06 10:46:35;;;;;;;0.47;0.00;;;21.70;77.00;;;;;;5095121;28;20266;-77
2022/08/06 10:49:02;;;;;;;0.80;0.00;;;21.50;78.20;;;;;;5093848;28;20027;-77
2022/08/06 10:51:28;;;;;;;2.65;0.00;;;21.50;82.90;;;;;;5095112;28;20511;-77
2022/08/06 10:53:54;;;;;;;0.10;0.00;;;21.90;83.90;;;;;;5095030;28;20024;-77
2022/08/06 10:56:20;;;;;;;3.85;0.00;;;22.30;81.40;;;;;;5093748;28;20379;-77
2022/08/06 10:58:46;;;;;;;1.95;0.00;;;22.90;80.50;;;;;;5093733;28;20031;-77
2022/08/06 11:01:21;;;;;;;0.30;0.00;;;22.90;75.90;;;;;;5093518;28;20044;-77
2022/08/06 11:03:56;;;;;;;1.08;0.00;;;22.70;75.10;;;;;;5095613;28;20032;-77
2022/08/06 11:06:47;;;;;;;0.47;0.00;;;22.40;76.70;;;;;;5094673;28;20453;-77
2022/08/06 11:09:34;;;;;;;2.97;0.00;;;22.20;79.10;;;;;;5094932;28;20058;-77
2022/08/06 11:12:22;;;;;;;0.00;0.00;;;22.40;79.50;;;;;;5093424;28;20036;-77
2022/08/06 11:14:48;;;;;;;;;;;23.00;74.60;;;;;;5094584;28;20043;-77
2022/08/06 11:17:14;;;;;;;0.10;0.00;;;23.50;72.30;;;;;;5094777;28;19990;-78
2022/08/06 11:19:45;;;;;;;0.20;0.00;;;23.70;71.60;;;;;;5093213;28;20038;-77
2022/08/06 11:22:48;;;;;;;0.45;0.00;;;24.20;72.90;;;;;;5094359;28;20031;-77
2022/08/06 11:25:13;;;;;;;0.10;0.00;;;24.80;67.90;;;;;;5094956;28;20101;-77
2022/08/06 11:27:49;;;;;;;1.65;0.00;;;25.40;66.00;;;;;;5094649;28;20488;-77
2022/08/06 11:30:15;;;;;;;0.00;0.00;;;25.80;64.80;;;;;;5094040;28;20020;-77
2022/08/06 11:32:45;;;;;;;1.35;0.00;;;26.10;64.70;;;;;;5093588;28;20031;-77
2022/08/06 11:35:32;;;;;;;1.35;0.00;;;26.20;63.00;;;;;;5094153;28;20388;-77
2022/08/06 11:38:03;;;;;;;0.52;0.00;;;26.10;63.90;;;;;;5094364;28;20081;-78
2022/08/06 11:40:55;;;;;;;0.68;0.00;;;25.80;61.20;;;;;;5092933;28;20020;-78
2022/08/06 11:43:53;;;;;;;2.13;0.00;;;25.50;64.80;;;;;;5094364;28;20077;-77
2022/08/06 11:46:34;;;;;;;0.85;0.00;;;25.70;65.50;;;;;;5093641;28;20066;-77
2022/08/06 11:49:02;;;;;;;0.47;0.00;;;25.80;61.70;;;;;;5094006;28;20034;-77
2022/08/06 11:51:37;;;;;;;1.98;0.00;;;26.20;65.70;;;;;;5093874;28;20069;-77
2022/08/06 11:54:16;;;;;;;0.28;0.00;;;26.40;62.90;;;;;;5093833;28;20100;-77
2022/08/06 11:57:06;;;;;;;0.22;0.00;;;26.40;61.70;;;;;;5094401;28;20427;-77
2022/08/06 11:59:45;;;;;;;0.00;0.00;;;26.40;59.50;;;;;;5094510;28;20031;-77
2022/08/06 12:02:13;;;;;;;0.15;0.00;;;26.10;62.60;;;;;;5093873;28;20018;-78
2022/08/06 12:04:42;;;;;;;0.50;0.00;;;26.20;62.30;;;;;;5093931;28;20051;-77
2022/08/06 12:07:23;;;;;;;0.45;0.00;;;26.50;61.90;;;;;;5093784;28;20062;-77
2022/08/06 12:10:10;;;;;;;1.65;0.00;;;26.50;60.20;;;;;;5093635;28;20024;-77
2022/08/06 12:12:45;;;;;;;0.15;0.00;;;26.60;60.90;;;;;;5092176;28;20012;-77
2022/08/06 12:15:13;;;;;;;0.00;0.00;;;26.90;58.50;;;;;;5093720;28;20024;-77
2022/08/06 12:17:42;;;;;;;3.33;0.10;;;27.00;55.90;;;;;;5093891;28;20020;-77
2022/08/06 12:20:08;;;;;;;0.00;0.00;;;27.10;56.70;;;;;;5093652;28;20020;-77
2022/08/06 12:22:35;;;;;;;0.00;0.00;;;27.20;54.50;;;;;;5093685;28;20036;-77
2022/08/06 12:25:04;;;;;;;0.95;0.00;;;27.20;51.80;;;;;;5093517;28;20028;-78
2022/08/06 12:27:35;;;;;;;2.92;0.00;;;27.30;52.00;;;;;;5093838;28;20043;-77
2022/08/06 12:30:02;;;;;;;0.40;0.00;;;27.30;55.00;;;;;;5093347;28;20020;-77
2022/08/06 12:32:29;;;;;;;0.98;0.00;;;27.50;53.30;;;;;;5093408;28;20028;-77
2022/08/06 12:34:57;;;;;;;0.85;0.00;;;27.50;51.50;;;;;;5093371;28;20440;-77
2022/08/06 12:37:36;;;;;;;0.38;0.00;;;27.60;53.70;;;;;;5092988;28;20019;-77
2022/08/06 12:42:53;;;;;;;1.42;0.00;;;26.70;53.70;;;;;;5095560;28;20090;-77
2022/08/06 12:45:23;;;;;;;1.45;0.00;;;26.40;52.20;;;;;;5097721;28;20035;-77
2022/08/06 12:48:03;;;;;;;0.10;0.00;;;26.80;55.90;;;;;;5097513;28;20062;-77
2022/08/06 12:50:31;;;;;;;0.93;0.00;;;27.00;54.00;;;;;;5097131;28;20457;-77
2022/08/06 12:53:06;;;;;;;0.17;0.00;;;27.20;51.20;;;;;;5097416;28;20050;-77
2022/08/06 12:55:34;;;;;;;0.40;0.00;;;27.50;53.20;;;;;;5097570;28;20020;-77
2022/08/06 12:58:00;;;;;;;;;;;28.00;52.60;;;;;;5097612;28;20016;-77
2022/08/06 13:00:28;;;;;;;0.00;0.00;;;28.20;54.10;;;;;;5097387;28;20348;-77
2022/08/06 13:02:54;;;;;;;0.00;0.00;;;28.50;51.10;;;;;;5097453;28;20027;-77
2022/08/06 13:05:22;;;;;;;0.05;0.00;;;28.20;52.40;;;;;;5095712;28;20404;-77
2022/08/06 13:07:47;;;;;;;1.03;0.00;;;27.50;50.80;;;;;;5097418;28;20052;-77
2022/08/06 13:10:13;;;;;;;1.48;0.00;;;26.70;53.70;;;;;;5096858;28;20286;-77
2022/08/06 13:12:39;;;;;;;0.17;0.00;;;26.20;55.20;;;;;;5096855;28;20098;-77